Time;durP1;ratioP1;P1;durP2;ratioP2;P2;SDS_P1;SDS_P2;PMS_P1;PMS_P2;Temp;Humidity;BMP_temperature;BMP_pressure;BME280_temperature;BME280_humidity;BME280_pressure;Samples;Min_cycle;Max_cycle;Signal;HPM_P1;HPM_P2
2022/01/24 00:02:15;;;;;;;11.65;6.82;;;;;;;-4.36;63.09;101781.41;5029809;28;20028;-71
2022/01/24 00:04:40;;;;;;;12.63;6.15;;;;;;;-4.13;62.84;101811.47;5026743;28;20478;-71
2022/01/24 00:07:06;;;;;;;11.75;8.55;;;;;;;-4.05;62.68;101815.56;5009355;28;20049;-73
2022/01/24 00:09:32;;;;;;;13.00;6.57;;;;;;;-4.21;62.91;101825.34;5049153;28;20029;-71
2022/01/24 00:12:04;;;;;;;13.85;8.23;;;;;;;-4.36;63.29;101796.78;5057715;28;20040;-75
2022/01/24 00:14:58;;;;;;;9.68;6.28;;;;;;;-4.21;62.82;101803.94;5057742;28;20391;-72
2022/01/24 00:28:08;;;;;;;10.35;6.32;;;;;;;-4.37;63.34;101810.38;5048123;28;20039;-74
2022/01/24 00:30:34;;;;;;;17.75;7.68;;;;;;;-4.25;63.10;101824.19;5048871;28;20021;-71
2022/01/24 00:36:04;;;;;;;9.43;5.80;;;;;;;-4.26;63.50;101842.91;5041089;28;20600;-72
2022/01/24 00:38:32;;;;;;;12.65;7.25;;;;;;;-4.01;63.24;101842.34;5025692;28;20285;-74
2022/01/24 00:40:58;;;;;;;21.05;8.20;;;;;;;-3.91;62.98;101831.16;5000571;28;20050;-72
2022/01/24 00:43:51;;;;;;;17.98;7.15;;;;;;;-4.13;63.08;101820.84;5012774;28;20046;-71
2022/01/24 00:46:31;;;;;;;;;;;;;;;-3.94;62.92;101838.59;5012234;28;20120;-69
2022/01/24 00:49:19;;;;;;;20.60;8.07;;;;;;;-4.16;63.37;101825.72;5025534;28;19955;-72
2022/01/24 00:58:27;;;;;;;14.82;7.80;;;;;;;-4.25;63.72;101841.22;5024506;28;20111;-72
2022/01/24 01:00:53;;;;;;;13.88;6.07;;;;;;;-4.39;63.59;101809.34;5008817;28;20080;-71
2022/01/24 01:03:19;;;;;;;16.15;9.15;;;;;;;-4.17;62.93;101842.75;5020550;28;20461;-72
2022/01/24 01:19:13;;;;;;;9.55;5.32;;;;;;;-4.56;62.60;101805.41;5025198;28;20055;-70
2022/01/24 01:21:38;;;;;;;12.98;6.47;;;;;;;-4.34;62.54;101820.88;5021204;28;20438;-73
2022/01/24 01:24:04;;;;;;;9.80;4.93;;;;;;;-4.39;62.01;101834.97;5024117;28;20489;-70
2022/01/24 01:29:03;;;;;;;10.35;6.47;;;;;;;-4.34;61.88;101841.38;5017876;28;20054;-74
2022/01/24 01:54:48;;;;;;;12.05;7.80;;;;;;;-4.49;61.67;101840.09;5003133;28;20056;-72
2022/01/24 02:00:38;;;;;;;11.32;7.60;;;;;;;-4.43;61.28;101849.94;5007430;28;20094;-71
2022/01/24 02:03:12;;;;;;;15.07;7.10;;;;;;;-4.40;60.83;101835.75;5011368;28;20038;-72
2022/01/24 02:05:43;;;;;;;12.48;7.13;;;;;;;-4.37;60.78;101858.16;5010867;28;20064;-71
2022/01/24 02:08:09;;;;;;;12.65;7.55;;;;;;;-4.46;60.60;101838.69;4999258;28;20089;-71
2022/01/24 02:10:36;;;;;;;15.50;6.90;;;;;;;-4.43;60.96;101860.19;5003242;28;20065;-70
2022/01/24 02:13:03;;;;;;;11.27;6.43;;;;;;;-4.46;61.01;101863.41;5004017;28;20025;-79
2022/01/24 02:15:49;;;;;;;10.50;6.60;;;;;;;-4.55;61.35;101860.06;5011730;28;20030;-71
2022/01/24 02:25:57;;;;;;;14.52;8.77;;;;;;;-4.82;61.49;101864.66;5004797;28;20060;-71
2022/01/24 02:28:24;;;;;;;12.40;6.88;;;;;;;-4.43;60.88;101866.22;5007657;28;20071;-72
2022/01/24 02:33:18;;;;;;;13.63;7.13;;;;;;;-4.09;59.75;101884.41;5004192;28;20137;-72
2022/01/24 02:35:43;;;;;;;13.30;7.40;;;;;;;-4.26;60.08;101865.06;5010347;28;20112;-73
2022/01/24 02:38:41;;;;;;;14.63;9.57;;;;;;;-4.23;60.12;101895.19;5001930;28;20224;-71
2022/01/24 02:49:31;;;;;;;17.42;6.30;;;;;;;-4.44;60.73;101901.97;5007522;28;20038;-71
2022/01/24 02:52:09;;;;;;;10.25;6.50;;;;;;;-4.32;60.37;101914.13;4998047;28;20030;-71
2022/01/24 02:54:37;;;;;;;16.80;8.77;;;;;;;-4.50;60.29;101908.34;5002623;28;20044;-71
2022/01/24 02:57:05;;;;;;;10.18;7.00;;;;;;;-4.55;60.90;101903.63;4999804;28;20049;-72
2022/01/24 02:59:30;;;;;;;17.27;9.45;;;;;;;-4.36;60.81;101927.44;4996050;28;20054;-71
2022/01/24 03:01:56;;;;;;;13.95;8.82;;;;;;;-4.09;60.37;101928.88;5000716;28;20037;-71
2022/01/24 03:04:22;;;;;;;14.60;9.05;;;;;;;-4.47;60.60;101918.88;5004093;28;20038;-70
2022/01/24 03:06:48;;;;;;;13.85;7.40;;;;;;;-4.55;61.45;101939.47;5009117;28;20032;-71
2022/01/24 03:09:14;;;;;;;14.20;7.10;;;;;;;-4.71;61.79;101942.38;4998256;28;20490;-72
2022/01/24 03:14:25;;;;;;;14.00;7.80;;;;;;;-4.53;61.90;101930.25;5009554;28;20041;-71
2022/01/24 03:16:51;;;;;;;13.40;7.65;;;;;;;-4.69;62.81;101962.22;5010199;28;20037;-71
2022/01/24 03:19:17;;;;;;;14.00;7.72;;;;;;;-4.98;62.13;101936.69;5008451;28;20415;-74
2022/01/24 03:21:43;;;;;;;13.35;7.20;;;;;;;-4.72;61.98;101961.06;4995162;28;20029;-70
2022/01/24 03:24:09;;;;;;;16.10;9.23;;;;;;;-4.48;61.42;101957.16;5008130;28;20049;-72
2022/01/24 03:26:36;;;;;;;18.52;10.00;;;;;;;-4.68;62.07;101943.56;5006445;28;20058;-72
2022/01/24 03:29:03;;;;;;;23.25;10.00;;;;;;;-4.16;60.87;101954.75;4993689;28;20081;-71
2022/01/24 03:31:28;;;;;;;14.65;8.35;;;;;;;-4.54;61.07;101966.84;5010674;28;20569;-71
2022/01/24 03:33:54;;;;;;;18.13;9.88;;;;;;;-4.14;60.71;101960.91;4995471;28;20105;-72
2022/01/24 03:36:19;;;;;;;12.63;7.97;;;;;;;-4.42;61.51;101949.09;4989915;28;20034;-72
2022/01/24 03:38:46;;;;;;;15.80;10.23;;;;;;;-4.69;62.04;101957.09;5010460;28;20046;-71
2022/01/24 03:41:11;;;;;;;13.45;7.97;;;;;;;-4.78;61.74;101945.19;5002428;28;20034;-71
2022/01/24 03:43:37;;;;;;;11.50;7.70;;;;;;;-4.78;61.64;101974.22;5013527;28;20088;-72
2022/01/24 03:48:41;;;;;;;17.60;9.02;;;;;;;-4.69;61.08;101982.72;4998613;28;20046;-71
2022/01/24 03:51:07;;;;;;;10.38;6.32;;;;;;;-4.43;61.38;101981.50;5003222;28;20045;-71
2022/01/24 03:53:34;;;;;;;11.48;7.38;;;;;;;-4.69;61.12;101975.03;4995040;28;20515;-71
2022/01/24 03:56:00;;;;;;;10.95;7.00;;;;;;;-4.60;61.36;101968.91;5010788;28;20129;-72
2022/01/24 03:58:25;;;;;;;16.77;8.20;;;;;;;-4.29;60.26;101977.53;5009300;28;20042;-72
2022/01/24 04:00:50;;;;;;;14.88;7.82;;;;;;;-4.39;60.35;101988.69;5010928;28;20181;-72
2022/01/24 04:03:16;;;;;;;14.05;7.88;;;;;;;-4.21;59.48;101966.28;5004234;28;20462;-74
2022/01/24 04:05:42;;;;;;;9.85;7.00;;;;;;;-4.06;58.66;101965.00;4999714;28;20062;-73
2022/01/24 04:08:08;;;;;;;14.80;8.07;;;;;;;-3.99;58.88;101994.59;5008885;28;20481;-71
2022/01/24 04:10:42;;;;;;;17.63;8.60;;;;;;;-4.07;58.87;101987.94;5014288;28;20048;-71
2022/01/24 04:13:23;;;;;;;14.45;8.38;;;;;;;-3.91;58.86;101997.81;4998509;28;20038;-70
2022/01/24 04:23:46;;;;;;;16.27;8.73;;;;;;;-3.82;57.32;101998.56;5000504;28;20453;-72
2022/01/24 04:26:11;;;;;;;21.35;9.98;;;;;;;-4.11;57.21;101985.91;5018072;28;20092;-71
2022/01/24 04:28:37;;;;;;;20.13;10.18;;;;;;;-4.04;56.44;102003.59;5001440;28;20033;-72
2022/01/24 04:31:03;;;;;;;17.35;8.82;;;;;;;-4.38;57.20;102008.38;5007607;28;20041;-71
2022/01/24 04:33:28;;;;;;;17.35;8.95;;;;;;;-4.34;56.58;102025.81;5003533;28;20488;-71
2022/01/24 04:35:53;;;;;;;23.00;11.50;;;;;;;-4.44;57.12;101989.06;5010789;28;20135;-71
2022/01/24 04:38:19;;;;;;;17.98;9.18;;;;;;;-4.45;57.71;102024.00;4993224;28;20050;-72
2022/01/24 04:40:45;;;;;;;12.93;7.43;;;;;;;-4.48;60.73;102018.63;5003102;28;20042;-71
2022/01/24 04:43:30;;;;;;;12.82;6.13;;;;;;;-4.43;61.73;102029.28;4990238;28;20471;-71
2022/01/24 04:46:41;;;;;;;12.13;8.27;;;;;;;-4.65;64.62;102037.66;4990360;28;20037;-71
2022/01/24 04:56:29;;;;;;;15.98;6.63;;;;;;;-4.59;68.47;102048.44;5019523;28;20503;-71
2022/01/24 04:58:54;;;;;;;11.68;6.35;;;;;;;-4.74;68.40;102017.25;4994605;28;20037;-72
2022/01/24 05:01:20;;;;;;;13.18;6.97;;;;;;;-4.90;68.35;102026.94;5002712;28;20034;-72
2022/01/24 05:03:45;;;;;;;11.27;6.07;;;;;;;-4.72;67.94;102027.66;5007159;28;20042;-71
2022/01/24 05:06:10;;;;;;;12.75;7.03;;;;;;;-4.58;67.49;102057.03;5007412;28;20050;-72
2022/01/24 05:08:38;;;;;;;12.07;7.32;;;;;;;-4.63;66.02;102051.50;4996438;28;20466;-70
2022/01/24 05:11:50;;;;;;;13.50;9.02;;;;;;;-4.53;65.95;102059.22;4992936;28;20104;-70
2022/01/24 05:25:13;;;;;;;14.65;7.20;;;;;;;-4.64;60.80;102075.28;5012931;28;20041;-70
2022/01/24 05:27:38;;;;;;;12.05;6.30;;;;;;;-4.76;61.38;102063.97;5014079;28;20030;-72
2022/01/24 05:30:05;;;;;;;10.43;6.15;;;;;;;-4.63;61.24;102063.41;5012215;28;20600;-72
2022/01/24 05:32:31;;;;;;;12.27;6.22;;;;;;;-4.61;61.72;102064.41;4995456;28;20076;-72
2022/01/24 05:37:40;;;;;;;13.38;8.43;;;;;;;-4.52;61.74;102071.28;5122698;27;20607;-70
2022/01/24 05:40:06;;;;;;;13.07;7.32;;;;;;;-4.32;62.02;102092.59;5082729;28;20111;-73
2022/01/24 05:42:32;;;;;;;11.88;6.72;;;;;;;-4.53;61.24;102089.94;5086344;28;20036;-71
2022/01/24 05:45:01;;;;;;;14.77;7.00;;;;;;;-4.27;61.81;102102.47;5081065;28;20379;-71
2022/01/24 05:47:26;;;;;;;15.10;7.15;;;;;;;-4.45;61.34;102113.66;5073930;28;20132;-71
2022/01/24 05:49:51;;;;;;;12.30;7.18;;;;;;;-4.52;61.32;102095.97;5078060;28;20128;-70
2022/01/24 05:52:17;;;;;;;14.30;8.88;;;;;;;-4.33;60.87;102117.31;5078431;28;20047;-71
2022/01/24 05:54:43;;;;;;;9.73;5.60;;;;;;;-4.49;60.63;102094.56;5077007;28;20079;-72
2022/01/24 05:57:09;;;;;;;13.48;7.80;;;;;;;-4.32;60.48;102120.78;5074978;28;20040;-73
2022/01/24 05:59:35;;;;;;;12.50;6.47;;;;;;;-4.32;60.25;102097.72;5095634;28;20044;-72
2022/01/24 06:02:01;;;;;;;14.73;7.53;;;;;;;-4.04;60.16;102113.81;5083809;28;20031;-71
2022/01/24 06:04:26;;;;;;;18.30;6.72;;;;;;;-4.15;59.50;102115.44;5092568;28;20040;-71
2022/01/24 06:06:52;;;;;;;13.25;7.80;;;;;;;-4.10;59.57;102116.75;5101967;28;20040;-71
2022/01/24 06:09:38;;;;;;;12.13;7.13;;;;;;;-4.33;59.00;102135.25;5094599;28;20456;-72
2022/01/24 06:12:04;;;;;;;15.95;8.90;;;;;;;-4.19;59.13;102140.66;5085429;28;20128;-71
2022/01/24 06:14:30;;;;;;;15.00;6.95;;;;;;;-4.07;60.07;102147.78;5079902;28;20055;-71
2022/01/24 06:16:55;;;;;;;11.80;6.88;;;;;;;-3.91;58.67;102146.50;5073739;28;20041;-72
2022/01/24 06:19:20;;;;;;;14.15;8.55;;;;;;;-4.30;59.46;102125.25;5093561;28;20040;-71
2022/01/24 06:21:46;;;;;;;14.52;7.97;;;;;;;-4.16;59.43;102126.47;5096992;28;20422;-72
2022/01/24 06:24:12;;;;;;;12.75;8.60;;;;;;;-4.03;59.16;102133.53;5085076;28;20047;-71
2022/01/24 06:26:39;;;;;;;14.38;7.50;;;;;;;-3.99;58.80;102155.22;5077867;28;20123;-72
2022/01/24 06:29:04;;;;;;;14.40;7.43;;;;;;;-3.94;58.82;102157.41;5084859;28;20055;-72
2022/01/24 06:31:30;;;;;;;17.02;8.18;;;;;;;-3.87;58.64;102158.84;5099235;28;20044;-72
2022/01/24 06:34:37;;;;;;;14.85;7.72;;;;;;;-4.01;58.85;102167.00;5092856;28;20024;-73
2022/01/24 06:37:04;;;;;;;14.43;8.68;;;;;;;-3.94;57.96;102149.72;5068220;28;20074;-73
2022/01/24 06:39:29;;;;;;;18.48;10.18;;;;;;;-3.84;58.18;102148.84;5066517;28;20037;-72
2022/01/24 06:42:10;;;;;;;18.95;8.40;;;;;;;-3.87;57.88;102166.53;5080877;28;20032;-72
2022/01/24 06:44:36;;;;;;;16.60;8.07;;;;;;;-3.86;58.27;102168.34;5083995;28;20040;-72
2022/01/24 06:47:02;;;;;;;15.50;8.05;;;;;;;-3.78;58.42;102148.47;5099644;28;20119;-70
2022/01/24 06:49:27;;;;;;;20.05;6.63;;;;;;;-3.84;58.88;102162.56;5074386;28;20041;-73
2022/01/24 06:52:20;;;;;;;18.10;9.38;;;;;;;-3.70;59.07;102160.28;5051645;28;20500;-73
2022/01/24 06:54:46;;;;;;;13.85;8.75;;;;;;;-3.90;59.24;102162.03;5060593;28;20062;-72
2022/01/24 06:57:13;;;;;;;15.82;8.13;;;;;;;-3.93;59.10;102142.94;5070825;28;20418;-71
2022/01/24 06:59:39;;;;;;;19.33;8.45;;;;;;;-3.91;59.33;102141.38;5039858;28;20053;-71
2022/01/24 07:02:05;;;;;;;10.55;6.60;;;;;;;-3.96;59.59;102145.22;5048700;28;20040;-72
2022/01/24 07:04:31;;;;;;;10.38;8.05;;;;;;;-3.80;59.84;102153.47;5052278;28;20128;-73
2022/01/24 07:06:56;;;;;;;35.45;8.25;;;;;;;-3.76;59.71;102144.38;5038881;28;20116;-72
2022/01/24 07:09:22;;;;;;;16.25;7.88;;;;;;;-3.96;60.22;102151.25;5050322;28;20025;-71
2022/01/24 07:11:49;;;;;;;17.70;7.93;;;;;;;-3.70;59.94;102162.84;5037001;28;20087;-75
2022/01/24 07:14:15;;;;;;;14.77;9.52;;;;;;;-3.67;60.64;102165.69;5038316;28;20041;-71
2022/01/24 07:19:32;;;;;;;17.02;8.15;;;;;;;-3.51;61.05;102149.91;5050570;28;20053;-72
2022/01/24 07:22:03;;;;;;;43.83;9.05;;;;;;;-3.26;59.97;102165.72;5037555;28;20059;-72
2022/01/24 07:24:29;;;;;;;18.20;8.90;;;;;;;-3.34;60.42;102165.06;5047800;28;20050;-72
2022/01/24 07:26:55;;;;;;;57.22;12.73;;;;;;;-3.62;61.33;102142.22;5059490;28;20037;-72
2022/01/24 07:29:21;;;;;;;22.40;10.13;;;;;;;-3.65;61.84;102167.63;5044934;28;20393;-71
2022/01/24 07:31:47;;;;;;;20.50;11.23;;;;;;;-3.61;61.86;102143.09;5054825;28;20043;-73
2022/01/24 07:34:16;;;;;;;15.13;8.98;;;;;;;-3.51;62.30;102157.59;5036404;28;20540;-72
2022/01/24 07:36:43;;;;;;;68.45;15.52;;;;;;;-3.64;62.56;102159.13;5050763;28;20053;-72
2022/01/24 07:39:08;;;;;;;14.40;8.77;;;;;;;-3.72;63.06;102151.53;5047252;28;20110;-76
2022/01/24 07:41:42;;;;;;;16.77;7.70;;;;;;;-3.71;63.78;102174.78;5042472;28;20033;-71
2022/01/24 07:44:07;;;;;;;17.27;9.88;;;;;;;-3.51;63.00;102165.31;5045399;28;20416;-71
2022/01/24 07:46:34;;;;;;;12.55;6.85;;;;;;;-3.58;63.70;102178.38;5050405;28;20045;-71
2022/01/24 07:49:02;;;;;;;23.65;9.70;;;;;;;-3.41;63.44;102171.34;5039645;28;20029;-71
2022/01/24 07:51:28;;;;;;;15.68;9.40;;;;;;;-3.69;63.80;102160.41;5049771;28;20029;-75
2022/01/24 07:53:53;;;;;;;15.25;6.85;;;;;;;-3.43;62.82;102170.31;5048320;28;20361;-80
2022/01/24 07:56:20;;;;;;;17.48;8.52;;;;;;;-3.53;63.41;102162.63;5044124;28;20045;-72
2022/01/24 07:58:45;;;;;;;16.67;7.20;;;;;;;-3.40;63.34;102161.97;5050880;28;20045;-72
2022/01/24 08:01:12;;;;;;;15.13;9.32;;;;;;;-3.38;63.21;102152.75;5049755;28;20415;-72
2022/01/24 08:03:38;;;;;;;15.25;9.38;;;;;;;-3.43;63.12;102167.75;5035588;28;20030;-72
2022/01/24 08:06:03;;;;;;;13.45;7.43;;;;;;;-3.53;63.12;102184.81;5034244;28;20099;-72
2022/01/24 08:08:29;;;;;;;30.55;9.13;;;;;;;-3.42;62.55;102179.84;5034513;28;20052;-72
2022/01/24 08:10:54;;;;;;;13.73;7.82;;;;;;;-3.51;62.28;102180.69;5041255;28;20043;-71
2022/01/24 08:13:20;;;;;;;12.43;7.47;;;;;;;-3.59;61.71;102121.03;5041204;28;20040;-72
2022/01/24 08:15:46;;;;;;;14.38;8.50;;;;;;;-3.27;61.62;102192.16;5043909;28;20021;-72
2022/01/24 08:18:12;;;;;;;11.50;7.47;;;;;;;-3.45;61.28;102191.50;5032091;28;20136;-72
2022/01/24 08:20:37;;;;;;;14.73;7.57;;;;;;;-3.17;61.00;102194.72;5040781;28;20046;-71
2022/01/24 08:23:03;;;;;;;23.27;9.73;;;;;;;-2.94;60.41;102188.94;5049757;28;20037;-74
2022/01/24 08:25:28;;;;;;;9.32;6.38;;;;;;;-3.32;59.75;102175.47;5048745;28;20114;-72
2022/01/24 08:27:54;;;;;;;11.23;7.57;;;;;;;-3.22;59.01;102181.50;5047239;28;20047;-72
2022/01/24 08:30:23;;;;;;;13.38;8.93;;;;;;;-3.23;57.65;102210.50;5048663;28;20033;-75
2022/01/24 08:32:49;;;;;;;16.70;7.60;;;;;;;-3.27;57.64;102187.03;5031473;28;20045;-74
2022/01/24 08:35:17;;;;;;;14.82;8.18;;;;;;;-3.01;58.29;102195.22;5035289;28;20707;-72
2022/01/24 08:37:43;;;;;;;13.15;8.90;;;;;;;-2.90;57.42;102203.84;5042436;28;20539;-71
2022/01/24 08:40:11;;;;;;;12.02;6.95;;;;;;;-3.00;56.28;102214.09;5044436;28;20112;-75
2022/01/24 08:42:56;;;;;;;37.20;9.45;;;;;;;-3.13;56.03;102201.03;5047212;28;20033;-80
2022/01/24 08:48:10;;;;;;;15.00;7.75;;;;;;;-3.01;56.36;102205.50;5042876;28;20125;-71
2022/01/24 08:51:02;;;;;;;10.85;5.43;;;;;;;-2.96;56.10;102223.84;5047782;28;20465;-70
2022/01/24 08:53:41;;;;;;;23.98;12.38;;;;;;;-2.82;56.45;102219.88;5048211;28;20041;-71
2022/01/24 08:56:07;;;;;;;19.65;6.35;;;;;;;-2.98;56.37;102216.00;5047602;28;20080;-72
2022/01/24 08:58:35;;;;;;;10.60;7.05;;;;;;;-2.83;56.44;102225.81;5042815;28;20072;-77
2022/01/24 09:03:29;;;;;;;14.20;6.05;;;;;;;-2.82;56.23;102223.34;5066789;28;20622;-71
2022/01/24 09:06:00;;;;;;;18.85;10.05;;;;;;;-2.62;55.98;102212.16;5017210;27;20046;-72
2022/01/24 09:08:26;;;;;;;12.45;7.50;;;;;;;-2.59;56.03;102226.91;5004895;28;20108;-72
2022/01/24 09:10:52;;;;;;;19.73;8.55;;;;;;;-2.61;55.64;102208.78;5005150;28;20409;-70
2022/01/24 09:13:25;;;;;;;14.40;6.68;;;;;;;-2.46;55.41;102224.59;5006455;28;20061;-70
2022/01/24 09:15:51;;;;;;;22.00;7.97;;;;;;;-2.41;54.92;102227.50;4994680;28;20030;-76
2022/01/24 09:18:19;;;;;;;14.25;8.25;;;;;;;-2.24;54.18;102219.50;5005347;28;20117;-72
2022/01/24 09:20:44;;;;;;;20.92;7.35;;;;;;;-2.48;54.08;102210.72;5008461;28;20073;-72
2022/01/24 09:23:48;;;;;;;12.05;7.78;;;;;;;-2.68;54.22;102239.00;5008001;28;20046;-71
2022/01/24 09:29:41;;;;;;;31.77;10.57;;;;;;;-2.79;54.51;102241.59;5007675;28;20056;-72
2022/01/24 09:32:07;;;;;;;17.50;8.10;;;;;;;-2.76;54.27;102207.56;5005625;28;20050;-74
2022/01/24 09:34:33;;;;;;;19.08;9.50;;;;;;;-2.40;54.25;102239.59;5005457;28;20042;-71
2022/01/24 09:36:58;;;;;;;13.40;6.28;;;;;;;-2.74;54.05;102193.13;5034690;28;20114;-72
2022/01/24 09:39:24;;;;;;;13.75;8.70;;;;;;;-2.39;53.83;102229.44;4996317;28;20018;-71
2022/01/24 09:41:51;;;;;;;13.43;6.45;;;;;;;-2.61;53.26;102223.31;5005314;28;20042;-72
2022/01/24 09:44:17;;;;;;;12.85;8.05;;;;;;;-2.46;52.75;102210.81;5008120;28;20042;-71
2022/01/24 09:50:27;;;;;;;20.42;10.65;;;;;;;-2.63;53.75;102228.31;5006642;28;20041;-72
2022/01/24 09:52:52;;;;;;;16.55;7.95;;;;;;;-2.53;53.19;102200.81;5002610;28;20077;-70
2022/01/24 09:55:21;;;;;;;18.65;10.98;;;;;;;-2.19;53.08;102213.06;5005852;28;20042;-72
2022/01/24 09:57:47;;;;;;;11.43;7.05;;;;;;;-2.26;52.90;102221.03;5008004;28;20026;-72
2022/01/24 10:00:17;;;;;;;15.85;9.10;;;;;;;-2.21;52.53;102227.44;5009508;28;20044;-72
2022/01/24 10:02:46;;;;;;;11.45;6.28;;;;;;;-2.21;52.19;102231.69;5003180;28;20065;-79
2022/01/24 10:05:25;;;;;;;12.75;6.75;;;;;;;-2.13;51.76;102216.13;5021701;28;20041;-76
2022/01/24 10:07:55;;;;;;;27.13;9.38;;;;;;;-2.37;52.47;102232.13;5004966;28;20113;-72
2022/01/24 10:10:29;;;;;;;14.18;7.80;;;;;;;-2.08;52.38;102228.44;5000557;28;20386;-72
2022/01/24 10:18:09;;;;;;;11.77;6.35;;;;;;;-1.77;49.27;102224.97;4991768;28;20050;-72
2022/01/24 10:20:38;;;;;;;11.07;6.70;;;;;;;-1.74;48.26;102239.75;4991685;28;20038;-71
2022/01/24 10:23:26;;;;;;;18.33;7.07;;;;;;;-2.04;49.30;102240.78;4991257;28;20085;-72
2022/01/24 10:26:03;;;;;;;11.80;7.45;;;;;;;-1.56;48.84;102235.16;4991322;28;20532;-72
2022/01/24 10:28:40;;;;;;;17.48;8.20;;;;;;;-1.71;49.08;102233.19;4993239;28;20081;-72
2022/01/24 10:31:46;;;;;;;12.02;7.07;;;;;;;-1.97;48.97;102245.63;5051755;28;20613;-71
2022/01/24 10:34:34;;;;;;;12.65;6.63;;;;;;;-1.89;48.81;102239.44;5003367;28;20061;-71
2022/01/24 10:37:00;;;;;;;14.98;8.45;;;;;;;-1.84;49.03;102211.50;5000323;28;20134;-72
2022/01/24 10:44:59;;;;;;;26.70;9.27;;;;;;;-0.59;47.18;102227.06;5006702;28;20125;-71
2022/01/24 10:47:32;;;;;;;22.83;14.93;;;;;;;-0.57;46.19;102231.53;5003013;28;20633;-72
2022/01/24 10:50:01;;;;;;;15.38;8.75;;;;;;;-0.03;44.73;102215.72;4992821;28;20088;-74
2022/01/24 10:52:29;;;;;;;13.55;7.00;;;;;;;0.39;44.43;102209.22;4999424;28;20425;-76
2022/01/24 10:55:14;;;;;;;14.63;8.48;;;;;;;0.70;43.03;102231.13;4993107;28;20488;-72
2022/01/24 10:57:41;;;;;;;12.80;6.97;;;;;;;-0.18;43.04;102212.03;5002694;28;20041;-74
2022/01/24 11:00:18;;;;;;;10.05;5.72;;;;;;;-1.00;43.75;102207.72;5001752;28;20128;-79
2022/01/24 11:02:48;;;;;;;19.98;8.15;;;;;;;-0.09;42.76;102209.25;5001482;28;20034;-76
2022/01/24 11:05:18;;;;;;;13.18;7.75;;;;;;;-0.09;42.60;102233.34;5003791;28;20497;-74
2022/01/24 11:08:03;;;;;;;14.63;7.63;;;;;;;-0.62;42.53;102230.31;4998840;28;20449;-75
2022/01/24 11:10:33;;;;;;;12.85;8.20;;;;;;;0.18;42.05;102220.63;4997191;28;20141;-74
2022/01/24 11:12:59;;;;;;;11.02;6.25;;;;;;;-0.12;41.54;102232.22;5022749;28;20049;-74
2022/01/24 11:15:26;;;;;;;10.70;7.03;;;;;;;0.16;40.98;102223.13;5001931;28;20026;-74
2022/01/24 11:17:53;;;;;;;16.02;6.65;;;;;;;-0.37;41.59;102240.75;5004190;28;20125;-75
2022/01/24 11:20:20;;;;;;;12.55;8.98;;;;;;;-0.73;42.29;102229.50;5004069;28;20132;-76
2022/01/24 11:22:52;;;;;;;30.92;7.18;;;;;;;-0.61;41.42;102220.88;5004143;28;20042;-76
2022/01/24 11:28:40;;;;;;;12.15;6.70;;;;;;;0.10;40.98;102240.72;5002882;28;20489;-78
2022/01/24 11:31:25;;;;;;;32.10;8.82;;;;;;;-0.32;41.69;102234.25;5003329;28;20045;-75
2022/01/24 11:34:13;;;;;;;50.78;11.60;;;;;;;-0.30;42.26;102226.63;4997799;28;20030;-75
2022/01/24 11:36:42;;;;;;;12.40;8.00;;;;;;;-0.38;41.54;102232.91;4990097;28;20038;-75
2022/01/24 11:39:08;;;;;;;13.30;9.13;;;;;;;0.33;40.59;102220.84;5002534;28;20048;-76
2022/01/24 11:41:37;;;;;;;45.97;9.60;;;;;;;0.00;41.15;102233.13;4996615;28;20058;-76
2022/01/24 11:44:15;;;;;;;11.95;7.15;;;;;;;-0.30;40.98;102218.91;4988088;28;20053;-74
2022/01/24 11:46:48;;;;;;;9.68;5.78;;;;;;;-0.36;41.01;102224.47;5013394;28;20041;-75
2022/01/24 11:49:13;;;;;;;11.95;5.75;;;;;;;-0.47;41.10;102223.72;4984668;28;20053;-78
2022/01/24 11:51:44;;;;;;;15.40;7.32;;;;;;;-0.13;40.88;102200.38;4995004;28;20116;-74
2022/01/24 11:55:34;;;;;;;13.85;7.38;;;;;;;0.36;39.98;102210.72;5083084;27;21112;-75
2022/01/24 11:58:04;;;;;;;12.82;7.25;;;;;;;-0.27;40.15;102206.22;5039356;28;20047;-74
2022/01/24 12:01:06;;;;;;;92.32;12.55;;;;;;;-0.50;41.13;102223.47;5043875;28;20064;-74
2022/01/24 12:03:35;;;;;;;26.80;8.00;;;;;;;-0.04;39.72;102195.88;5032115;28;20052;-76
2022/01/24 12:06:09;;;;;;;21.52;10.10;;;;;;;-0.60;40.44;102204.66;5045351;28;20022;-76
2022/01/24 12:08:43;;;;;;;22.77;13.02;;;;;;;-0.38;40.88;102209.69;5041438;28;20041;-76
2022/01/24 12:11:36;;;;;;;20.40;11.27;;;;;;;-0.07;39.65;102190.50;5047021;28;20064;-75
2022/01/24 12:14:19;;;;;;;12.27;7.70;;;;;;;0.15;39.12;102177.44;5039754;28;20381;-74
2022/01/24 12:16:45;;;;;;;24.15;10.98;;;;;;;-0.06;39.69;102196.56;5047569;28;20112;-71
2022/01/24 12:19:12;;;;;;;10.57;6.45;;;;;;;-0.07;39.83;102198.25;5060154;28;20049;-71
2022/01/24 12:21:40;;;;;;;12.48;8.40;;;;;;;-0.25;40.56;102204.66;5039690;28;20049;-73
2022/01/24 12:24:12;;;;;;;33.08;9.25;;;;;;;0.53;40.22;102180.88;5030103;28;20041;-72
2022/01/24 12:26:47;;;;;;;26.35;10.68;;;;;;;0.34;39.85;102189.94;5038933;28;20077;-72
2022/01/24 12:29:14;;;;;;;16.17;8.20;;;;;;;0.74;39.38;102204.72;5042638;28;20043;-73
2022/01/24 12:32:03;;;;;;;9.13;6.38;;;;;;;0.29;39.47;102200.75;5031073;28;20041;-71
2022/01/24 12:34:37;;;;;;;14.02;7.63;;;;;;;0.38;39.43;102180.75;5037689;28;20384;-72
2022/01/24 12:37:04;;;;;;;13.20;8.27;;;;;;;0.87;38.92;102194.44;5047758;28;20099;-71
2022/01/24 12:39:33;;;;;;;12.38;8.38;;;;;;;0.98;38.49;102196.06;5045029;28;20477;-72
2022/01/24 12:42:18;;;;;;;10.95;7.47;;;;;;;1.11;38.06;102196.88;5044105;28;20103;-70
2022/01/24 12:47:15;;;;;;;12.25;7.35;;;;;;;0.95;38.84;102193.25;5039443;28;20060;-72
2022/01/24 12:49:42;;;;;;;12.10;7.03;;;;;;;-0.28;39.38;102174.38;5040632;28;20099;-71
2022/01/24 12:52:16;;;;;;;12.10;7.43;;;;;;;-0.14;40.29;102195.09;5046389;28;20025;-69
2022/01/24 12:54:50;;;;;;;11.32;8.38;;;;;;;0.27;39.98;102194.56;5033593;28;20485;-70
2022/01/24 12:57:19;;;;;;;14.02;9.23;;;;;;;-0.19;40.49;102196.44;5030882;28;20041;-72
2022/01/24 13:00:29;;;;;;;31.30;19.77;;;;;;;0.15;39.92;102198.06;5037773;28;20076;-70
2022/01/24 13:03:10;;;;;;;13.63;7.68;;;;;;;0.29;39.35;102195.59;5038001;28;20017;-73
2022/01/24 13:09:25;;;;;;;16.98;7.88;;;;;;;-0.11;39.89;102192.75;5016319;28;20493;-72
2022/01/24 13:21:07;;;;;;;14.23;7.18;;;;;;;-0.27;40.05;102190.75;5018315;28;20095;-70
2022/01/24 13:23:32;;;;;;;14.25;7.53;;;;;;;0.12;39.87;102190.13;5023791;28;20473;-71
2022/01/24 13:25:57;;;;;;;19.67;9.43;;;;;;;-0.02;39.86;102194.31;5024012;28;20041;-71
2022/01/24 13:28:23;;;;;;;14.57;9.35;;;;;;;0.56;38.92;102189.75;5015028;28;20042;-71
2022/01/24 13:31:01;;;;;;;16.27;8.55;;;;;;;0.95;38.71;102190.66;5023446;28;20373;-70
2022/01/24 13:33:29;;;;;;;15.88;7.82;;;;;;;0.47;38.92;102175.28;5027769;28;20045;-71
2022/01/24 13:35:59;;;;;;;17.95;8.65;;;;;;;0.41;38.58;102152.53;5025899;28;20049;-71
2022/01/24 13:38:33;;;;;;;23.02;9.80;;;;;;;0.83;38.19;102177.81;5031635;28;20049;-71
2022/01/24 13:41:08;;;;;;;15.05;10.27;;;;;;;0.75;38.20;102168.66;5030657;28;20033;-70
2022/01/24 13:43:51;;;;;;;19.08;8.48;;;;;;;1.03;38.48;102186.00;5028343;28;20124;-74
2022/01/24 13:46:23;;;;;;;16.27;8.15;;;;;;;0.92;38.79;102154.28;5024364;28;20160;-70
2022/01/24 13:48:59;;;;;;;14.50;8.43;;;;;;;1.02;37.91;102186.81;5033744;28;20075;-71
2022/01/24 13:51:25;;;;;;;12.68;8.73;;;;;;;1.02;37.86;102179.94;5023417;28;20060;-71
2022/01/24 13:53:55;;;;;;;13.75;7.55;;;;;;;0.90;37.78;102186.00;5029817;28;20054;-71
2022/01/24 14:00:11;;;;;;;16.17;9.98;;;;;;;0.21;38.90;102195.00;5031420;28;20110;-70
2022/01/24 14:02:37;;;;;;;44.25;12.38;;;;;;;0.38;38.34;102185.91;5013481;28;20053;-70
2022/01/24 14:05:03;;;;;;;40.67;12.18;;;;;;;0.39;38.52;102185.09;5029736;28;20030;-68
2022/01/24 14:07:42;;;;;;;22.40;11.50;;;;;;;0.87;38.08;102176.34;5030712;28;20033;-69
2022/01/24 14:10:12;;;;;;;13.73;8.90;;;;;;;0.58;38.22;102195.00;5034719;28;20381;-69
2022/01/24 14:12:55;;;;;;;12.60;8.68;;;;;;;0.39;38.11;102200.59;5034106;28;20033;-69
2022/01/24 14:15:34;;;;;;;14.57;8.15;;;;;;;0.27;38.88;102198.03;5030420;28;20837;-68
2022/01/24 14:20:34;;;;;;;13.40;8.17;;;;;;;0.81;37.37;102196.59;5033951;28;20052;-69
2022/01/24 14:23:01;;;;;;;14.50;8.95;;;;;;;0.92;37.66;102205.09;5031574;28;20053;-70